createdAt,value
2019-01-20T00:00:01.772Z,101818.35
2019-01-20T00:02:29.089Z,101822.27
2019-01-20T00:04:56.288Z,101823.59
2019-01-20T00:07:23.481Z,101823.59
2019-01-20T00:09:50.789Z,101824.87
2019-01-20T00:12:18.025Z,101819.21
2019-01-20T00:14:45.191Z,101817.03
2019-01-20T00:17:12.445Z,101818.35
2019-01-20T00:19:39.551Z,101818.35
2019-01-20T00:22:06.798Z,101818.36
2019-01-20T00:24:33.954Z,101819.66
2019-01-20T00:27:01.123Z,101821.39
2019-01-20T00:29:28.322Z,101815.75
2019-01-20T00:31:55.485Z,101807.91
2019-01-20T00:34:22.738Z,101817.47
2019-01-20T00:36:49.896Z,101814.84
2019-01-20T00:39:17.117Z,101818.34
2019-01-20T00:41:44.292Z,101820.09
2019-01-20T00:44:11.507Z,101815.30
2019-01-20T00:46:38.663Z,101815.30
2019-01-20T00:49:05.897Z,101819.20
2019-01-20T00:51:33.567Z,101819.20
2019-01-20T00:54:00.981Z,101818.75
2019-01-20T00:56:28.187Z,101815.70
2019-01-20T00:58:55.491Z,101817.02
2019-01-20T01:01:22.667Z,101813.52
2019-01-20T01:03:49.880Z,101822.66
2019-01-20T01:06:17.205Z,101822.66
2019-01-20T01:08:44.389Z,101824.86
2019-01-20T01:11:11.550Z,101824.41
2019-01-20T01:13:38.799Z,101818.33
2019-01-20T01:16:06.004Z,101818.33
2019-01-20T01:18:33.206Z,101825.73
2019-01-20T01:21:00.454Z,101824.85
2019-01-20T01:23:27.639Z,101819.20
2019-01-20T01:25:54.789Z,101819.20
2019-01-20T01:28:21.996Z,101818.77
2019-01-20T01:30:49.154Z,101816.56
2019-01-20T01:33:16.336Z,101816.56
2019-01-20T01:35:43.516Z,101821.38
2019-01-20T01:38:10.712Z,101824.86
2019-01-20T01:40:37.939Z,101823.12
2019-01-20T01:43:05.150Z,101823.54
2019-01-20T01:45:32.427Z,101828.34
2019-01-20T01:47:59.643Z,101820.91
2019-01-20T01:50:26.877Z,101823.09
2019-01-20T01:52:54.039Z,101820.05
2019-01-20T01:55:21.221Z,101822.23
2019-01-20T01:57:48.413Z,101825.71
2019-01-20T02:00:18.051Z,101827.88
2019-01-20T02:02:45.254Z,101812.19
2019-01-20T02:05:12.573Z,101812.19
2019-01-20T02:07:39.732Z,101818.31
2019-01-20T02:10:09.314Z,101824.84
2019-01-20T02:12:36.521Z,101824.83
2019-01-20T02:15:04.496Z,101824.83
2019-01-20T02:17:31.720Z,101825.29
2019-01-20T02:19:58.882Z,101824.83
2019-01-20T02:22:26.089Z,101816.13
2019-01-20T02:24:53.260Z,101825.72
2019-01-20T02:27:20.456Z,101825.27
2019-01-20T02:29:47.688Z,101824.83
2019-01-20T02:32:14.874Z,101815.70
2019-01-20T02:34:42.056Z,101815.70
2019-01-20T02:37:09.263Z,101824.81
2019-01-20T02:39:36.490Z,101824.38
2019-01-20T02:42:03.647Z,101822.65
2019-01-20T02:44:30.855Z,101823.98
2019-01-20T02:46:58.060Z,101821.79
2019-01-20T02:49:25.291Z,101821.34
2019-01-20T02:51:52.601Z,101813.95
2019-01-20T02:54:19.780Z,101817.01
2019-01-20T02:56:46.963Z,101810.89
2019-01-20T02:59:14.171Z,101814.80
2019-01-20T03:01:41.700Z,101814.80
2019-01-20T03:04:08.855Z,101820.91
2019-01-20T03:06:36.055Z,101817.86
2019-01-20T03:09:07.657Z,101817.42
2019-01-20T03:11:34.924Z,101819.59
2019-01-20T03:14:02.072Z,101815.25
2019-01-20T03:16:29.270Z,101814.80
2019-01-20T03:18:56.952Z,101814.35
2019-01-20T03:21:24.093Z,101817.84
2019-01-20T03:23:51.295Z,101820.03
2019-01-20T03:26:18.507Z,101813.50
2019-01-20T03:28:45.688Z,101817.86
2019-01-20T03:31:12.880Z,101810.89
2019-01-20T03:33:40.115Z,101809.15
2019-01-20T03:36:07.275Z,101807.84
2019-01-20T03:38:34.466Z,101816.98
2019-01-20T03:41:01.700Z,101811.75
2019-01-20T03:43:28.878Z,101809.56
2019-01-20T03:45:56.106Z,101812.18
2019-01-20T03:48:23.257Z,101812.18
2019-01-20T03:50:50.494Z,101814.34
2019-01-20T03:53:17.704Z,101813.06
2019-01-20T03:55:44.866Z,101813.48
2019-01-20T03:58:12.077Z,101810.89
2019-01-20T04:00:39.381Z,101810.00
2019-01-20T04:03:06.649Z,101810.02
2019-01-20T04:05:33.846Z,101811.77
2019-01-20T04:08:01.055Z,101806.95
2019-01-20T04:10:28.277Z,101806.95
2019-01-20T04:12:55.519Z,101809.55
2019-01-20T04:15:22.658Z,101811.73
2019-01-20T04:17:49.880Z,101811.73
2019-01-20T04:20:17.079Z,101811.73
2019-01-20T04:22:44.228Z,101811.75
2019-01-20T04:25:12.144Z,101808.67
2019-01-20T04:27:39.353Z,101814.36
2019-01-20T04:30:08.072Z,101813.92
2019-01-20T04:32:35.234Z,101813.92
2019-01-20T04:35:02.492Z,101813.05
2019-01-20T04:37:29.650Z,101806.09
2019-01-20T04:39:56.873Z,101809.60
2019-01-20T04:42:29.055Z,101806.53
2019-01-20T04:44:53.179Z,101813.97
2019-01-20T04:47:20.350Z,101817.45
2019-01-20T04:49:47.539Z,101822.68
2019-01-20T04:52:14.726Z,101823.08
2019-01-20T04:54:41.897Z,101829.61
2019-01-20T04:57:09.194Z,101823.51
2019-01-20T04:59:36.412Z,101821.35
2019-01-20T05:02:03.651Z,101821.78
2019-01-20T05:04:30.844Z,101817.41
2019-01-20T05:06:58.070Z,101817.45
2019-01-20T05:09:25.224Z,101814.40
2019-01-20T05:11:52.442Z,101809.19
2019-01-20T05:14:19.622Z,101819.17
2019-01-20T05:16:46.857Z,101821.36
2019-01-20T05:19:14.060Z,101823.98
2019-01-20T05:21:41.339Z,101814.84
2019-01-20T05:24:08.526Z,101816.56
2019-01-20T05:26:35.686Z,101814.41
2019-01-20T05:29:02.850Z,101810.94
2019-01-20T05:31:30.011Z,101812.23
2019-01-20T05:33:57.341Z,101816.14
2019-01-20T05:36:24.494Z,101811.38
2019-01-20T05:38:51.665Z,101808.33
2019-01-20T05:41:18.881Z,101808.33
2019-01-20T05:43:46.063Z,101818.77
2019-01-20T05:46:13.261Z,101815.30
2019-01-20T05:48:40.490Z,101816.16
2019-01-20T05:51:07.671Z,101816.16
2019-01-20T05:53:34.929Z,101816.17
2019-01-20T05:56:02.203Z,101813.98
2019-01-20T05:58:29.328Z,101814.86
2019-01-20T06:00:56.571Z,101821.84
2019-01-20T06:03:23.726Z,101821.39
2019-01-20T06:05:50.942Z,101825.31
2019-01-20T06:08:18.118Z,101830.97
2019-01-20T06:10:45.302Z,101825.31
2019-01-20T06:13:12.518Z,101828.35
2019-01-20T06:15:39.746Z,101831.42
2019-01-20T06:18:07.006Z,101833.59
2019-01-20T06:20:34.190Z,101830.11
2019-01-20T06:23:01.374Z,101830.11
2019-01-20T06:25:28.566Z,101839.25
2019-01-20T06:27:55.725Z,101844.03
2019-01-20T06:30:31.018Z,101841.01
2019-01-20T06:32:58.182Z,101851.03
2019-01-20T06:35:25.334Z,101845.78
2019-01-20T06:37:52.497Z,101848.41
2019-01-20T06:40:19.711Z,101846.64
2019-01-20T06:42:46.885Z,101851.88
2019-01-20T06:45:14.142Z,101848.41
2019-01-20T06:47:41.346Z,101857.09
2019-01-20T06:50:10.343Z,101858.00
2019-01-20T06:52:37.549Z,101861.45
2019-01-20T06:55:05.066Z,101861.02
2019-01-20T06:57:32.246Z,101855.80
2019-01-20T06:59:59.413Z,101855.80
2019-01-20T07:02:26.606Z,101864.08
2019-01-20T07:04:53.774Z,101866.27
2019-01-20T07:07:21.143Z,101871.48
2019-01-20T07:09:48.296Z,101870.19
2019-01-20T07:12:15.457Z,101866.25
2019-01-20T07:14:42.659Z,101866.27
2019-01-20T07:17:09.892Z,101871.52
2019-01-20T07:19:37.084Z,101879.33
2019-01-20T07:22:04.242Z,101879.33
2019-01-20T07:24:31.461Z,101878.44
2019-01-20T07:26:58.626Z,101888.45
2019-01-20T07:29:25.832Z,101883.69
2019-01-20T07:31:53.023Z,101888.94
2019-01-20T07:34:20.202Z,101890.66
2019-01-20T07:36:47.404Z,101891.53
2019-01-20T07:39:14.627Z,101896.31
2019-01-20T07:41:41.804Z,101894.56
2019-01-20T07:44:08.975Z,101894.56
2019-01-20T07:46:36.218Z,101892.42
2019-01-20T07:49:03.402Z,101898.95
2019-01-20T07:51:30.603Z,101900.24
2019-01-20T07:53:57.763Z,101902.47
2019-01-20T07:56:24.992Z,101906.83
2019-01-20T07:58:52.128Z,101912.00
2019-01-20T08:01:19.372Z,101917.25
2019-01-20T08:03:46.564Z,101917.25
2019-01-20T08:06:13.802Z,101919.00
2019-01-20T08:08:40.997Z,101925.08
2019-01-20T08:11:08.256Z,101925.08
2019-01-20T08:13:35.429Z,101929.93
2019-01-20T08:16:02.633Z,101934.30
2019-01-20T08:18:29.835Z,101939.50
2019-01-20T08:20:57.018Z,101945.14
2019-01-20T08:23:24.348Z,101946.48
2019-01-20T08:25:51.543Z,101951.28
2019-01-20T08:28:18.741Z,101946.93
2019-01-20T08:30:45.971Z,101946.93
2019-01-20T08:33:13.165Z,101949.55
2019-01-20T08:35:40.376Z,101953.04
2019-01-20T08:38:07.567Z,101959.58
2019-01-20T08:40:34.775Z,101962.20
2019-01-20T08:43:01.983Z,101962.20
2019-01-20T08:46:09.560Z,101965.24
2019-01-20T08:48:36.706Z,101967.88
2019-01-20T08:51:04.625Z,101973.55
2019-01-20T08:53:31.806Z,101973.55
2019-01-20T08:55:59.027Z,101976.58
2019-01-20T08:58:26.204Z,101976.58
2019-01-20T09:00:53.383Z,101977.88
2019-01-20T09:03:20.854Z,101975.74
2019-01-20T09:05:48.449Z,101972.25
2019-01-20T09:08:15.638Z,101973.98
2019-01-20T09:10:42.801Z,101973.98
2019-01-20T09:13:10.406Z,101968.77
2019-01-20T09:15:37.726Z,101978.36
2019-01-20T09:18:05.244Z,101982.27
2019-01-20T09:20:32.457Z,101985.78
2019-01-20T09:22:59.657Z,101985.78
2019-01-20T09:25:26.864Z,101977.48
2019-01-20T09:27:54.084Z,101977.48
2019-01-20T09:30:21.306Z,101988.41
2019-01-20T09:32:48.538Z,101995.38
2019-01-20T09:35:15.691Z,101991.02
2019-01-20T09:37:42.863Z,101999.34
2019-01-20T09:40:11.083Z,101995.84
2019-01-20T09:42:38.293Z,102001.95
2019-01-20T09:45:08.472Z,102014.18
2019-01-20T09:47:35.672Z,102011.10
2019-01-20T09:50:03.193Z,102018.09
2019-01-20T09:52:30.362Z,102018.09
2019-01-20T09:54:57.543Z,102017.66
2019-01-20T09:57:24.720Z,102017.66
2019-01-20T09:59:51.897Z,102025.93
2019-01-20T10:02:19.126Z,102025.52
2019-01-20T10:04:46.359Z,102027.28
2019-01-20T10:07:13.609Z,102031.20
2019-01-20T10:09:40.792Z,102031.20
2019-01-20T10:12:08.029Z,102028.14
2019-01-20T10:14:35.203Z,102025.11
2019-01-20T10:17:02.524Z,102025.11
2019-01-20T10:19:29.710Z,102028.59
2019-01-20T10:21:56.927Z,102028.59
2019-01-20T10:24:24.101Z,102032.97
2019-01-20T10:26:51.350Z,102030.78
2019-01-20T10:29:18.545Z,102033.41
2019-01-20T10:31:45.754Z,102037.32
2019-01-20T10:34:12.958Z,102040.82
2019-01-20T10:36:40.173Z,102038.22
2019-01-20T10:39:10.770Z,102038.22
2019-01-20T10:41:37.959Z,102036.03
2019-01-20T10:44:05.168Z,102036.03
2019-01-20T10:46:32.345Z,102030.39
2019-01-20T10:48:59.549Z,102030.39
2019-01-20T10:51:26.749Z,102028.17
2019-01-20T10:53:53.997Z,102028.17
2019-01-20T10:56:21.195Z,102033.86
2019-01-20T10:58:48.357Z,102036.47
2019-01-20T11:01:15.579Z,102033.41
2019-01-20T11:03:42.743Z,102033.86
2019-01-20T11:06:10.099Z,102033.41
2019-01-20T11:08:37.283Z,102041.28
2019-01-20T11:11:04.501Z,102043.90
2019-01-20T11:13:31.751Z,102043.90
2019-01-20T11:15:58.958Z,102046.52
2019-01-20T11:18:26.114Z,102046.52
2019-01-20T11:20:53.436Z,102043.03
2019-01-20T11:23:22.373Z,102047.83
2019-01-20T11:25:49.567Z,102052.64
2019-01-20T11:28:16.782Z,102052.22
2019-01-20T11:30:43.973Z,102052.22
2019-01-20T11:33:11.183Z,102041.30
2019-01-20T11:35:38.385Z,102049.59
2019-01-20T11:38:05.736Z,102049.59
2019-01-20T11:40:33.213Z,102053.53
2019-01-20T11:43:00.404Z,102053.53
2019-01-20T11:45:29.178Z,102054.85
2019-01-20T11:47:56.362Z,102053.52
2019-01-20T11:50:23.627Z,102050.02
2019-01-20T11:52:50.870Z,102047.42
2019-01-20T11:55:19.254Z,102047.42
2019-01-20T11:57:46.456Z,102051.35
2019-01-20T12:00:24.927Z,102045.68
2019-01-20T12:02:52.114Z,102053.94
2019-01-20T12:05:19.395Z,102047.41
2019-01-20T12:07:46.642Z,102052.23
2019-01-20T12:10:13.848Z,102046.53
2019-01-20T12:12:42.367Z,102056.14
2019-01-20T12:15:10.584Z,102054.40
2019-01-20T12:17:37.813Z,102046.55
2019-01-20T12:20:06.917Z,102050.05
2019-01-20T12:22:34.105Z,102051.78
2019-01-20T12:25:01.280Z,102046.61
2019-01-20T12:27:28.458Z,102046.61
2019-01-20T12:29:55.668Z,102049.20
2019-01-20T12:32:22.888Z,102047.03
2019-01-20T12:34:50.226Z,102045.28
2019-01-20T12:37:17.395Z,102045.28
2019-01-20T12:39:44.563Z,102047.47
2019-01-20T12:42:11.793Z,102050.97
2019-01-20T12:44:38.972Z,102050.97
2019-01-20T12:47:06.165Z,102043.98
2019-01-20T12:49:33.336Z,102030.88
2019-01-20T12:52:00.582Z,102028.73
2019-01-20T12:54:27.774Z,102028.73
2019-01-20T12:56:54.980Z,102033.52
2019-01-20T12:59:22.189Z,102035.25
2019-01-20T13:01:49.418Z,102043.55
2019-01-20T13:04:16.621Z,102041.39
2019-01-20T13:06:43.786Z,102039.19
2019-01-20T13:09:10.998Z,102039.63
2019-01-20T13:11:38.169Z,102050.12
2019-01-20T13:14:05.367Z,102048.34
2019-01-20T13:16:32.534Z,102050.12
2019-01-20T13:18:59.747Z,102046.59
2019-01-20T13:21:26.935Z,102050.98
2019-01-20T13:23:54.172Z,102058.82
2019-01-20T13:26:21.387Z,102054.01
2019-01-20T13:28:48.622Z,102056.63
2019-01-20T13:31:15.796Z,102055.75
2019-01-20T13:33:42.987Z,102060.55
2019-01-20T13:36:10.220Z,102060.98
2019-01-20T13:38:37.383Z,102053.12
2019-01-20T13:41:12.117Z,102056.59
2019-01-20T13:43:39.287Z,102058.77
2019-01-20T13:46:06.428Z,102058.77
2019-01-20T13:48:33.623Z,102060.52
2019-01-20T13:51:00.814Z,102056.59
2019-01-20T13:53:28.000Z,102058.30
2019-01-20T13:56:01.217Z,102053.94
2019-01-20T13:58:24.254Z,102050.00
2019-01-20T14:00:51.440Z,102044.75
2019-01-20T14:03:18.621Z,102040.39
2019-01-20T14:05:45.789Z,102038.62
2019-01-20T14:08:13.015Z,102040.82
2019-01-20T14:10:40.183Z,102046.52
2019-01-20T14:13:07.402Z,102042.59
2019-01-20T14:15:34.538Z,102049.15
2019-01-20T14:18:01.735Z,102057.02
2019-01-20T14:20:28.894Z,102058.75
2019-01-20T14:22:56.109Z,102059.21
2019-01-20T14:25:24.189Z,102064.45
2019-01-20T14:27:51.371Z,102064.88
2019-01-20T14:30:21.066Z,102069.70
2019-01-20T14:32:48.232Z,102073.17
2019-01-20T14:35:15.443Z,102072.75
2019-01-20T14:37:42.638Z,102076.69
2019-01-20T14:40:11.305Z,102085.83
2019-01-20T14:42:38.468Z,102083.23
2019-01-20T14:45:06.550Z,102076.68
2019-01-20T14:47:33.730Z,102079.30
2019-01-20T14:50:00.976Z,102084.13
2019-01-20T14:52:28.168Z,102078.88
2019-01-20T14:54:55.339Z,102076.25
2019-01-20T14:57:22.533Z,102074.52
2019-01-20T14:59:49.702Z,102074.94
2019-01-20T15:02:17.005Z,102073.66
2019-01-20T15:04:44.194Z,102076.28
2019-01-20T15:07:11.392Z,102083.70
2019-01-20T15:09:38.642Z,102086.28
2019-01-20T15:12:05.833Z,102079.75
2019-01-20T15:14:33.050Z,102082.38
2019-01-20T15:17:01.077Z,102081.48
2019-01-20T15:19:28.424Z,102083.25
2019-01-20T15:21:55.624Z,102084.98
2019-01-20T15:24:22.921Z,102090.67
2019-01-20T15:26:50.228Z,102092.86
2019-01-20T15:29:17.409Z,102101.16
2019-01-20T15:31:44.643Z,102104.69
2019-01-20T15:34:11.870Z,102102.48
2019-01-20T15:36:39.043Z,102102.06
2019-01-20T15:39:07.352Z,102103.36
2019-01-20T15:41:34.616Z,102108.16
2019-01-20T15:44:01.790Z,102103.80
2019-01-20T15:46:28.986Z,102103.36
2019-01-20T15:48:56.170Z,102094.64
2019-01-20T15:51:23.371Z,102101.61
2019-01-20T15:53:50.545Z,102099.45
2019-01-20T15:56:17.730Z,102099.44
2019-01-20T15:58:45.037Z,102099.00
2019-01-20T16:01:12.233Z,102100.28
2019-01-20T16:03:39.438Z,102105.98
2019-01-20T16:06:06.643Z,102113.39
2019-01-20T16:08:33.838Z,102116.00
2019-01-20T16:11:01.181Z,102117.29
2019-01-20T16:13:28.351Z,102115.09
2019-01-20T16:15:55.528Z,102121.20
2019-01-20T16:18:22.710Z,102122.95
2019-01-20T16:20:49.912Z,102126.87
2019-01-20T16:23:17.137Z,102129.49
2019-01-20T16:25:44.350Z,102129.49
2019-01-20T16:28:11.601Z,102125.55
2019-01-20T16:30:39.573Z,102129.89
2019-01-20T16:33:06.752Z,102124.61
2019-01-20T16:35:33.976Z,102130.30
2019-01-20T16:38:02.014Z,102137.25
2019-01-20T16:40:29.298Z,102132.45
2019-01-20T16:42:56.502Z,102132.45
2019-01-20T16:45:42.175Z,102137.70
2019-01-20T16:48:07.582Z,102138.11
2019-01-20T16:50:34.817Z,102137.66
2019-01-20T16:53:02.006Z,102138.11
2019-01-20T16:55:29.154Z,102138.09
2019-01-20T16:57:56.371Z,102144.63
2019-01-20T17:00:28.383Z,102149.41
2019-01-20T17:02:55.655Z,102149.41
2019-01-20T17:05:26.798Z,102146.79
2019-01-20T17:07:51.979Z,102152.43
2019-01-20T17:10:21.274Z,102148.52
2019-01-20T17:12:48.462Z,102158.98
2019-01-20T17:15:18.156Z,102158.98
2019-01-20T17:17:45.467Z,102155.48
2019-01-20T17:20:13.708Z,102169.45
2019-01-20T17:22:40.925Z,102156.80
2019-01-20T17:25:08.667Z,102161.56
2019-01-20T17:27:35.921Z,102163.77
2019-01-20T17:30:04.158Z,102163.77
2019-01-20T17:32:31.333Z,102159.39
2019-01-20T17:34:58.573Z,102162.45
2019-01-20T17:37:25.800Z,102162.45
2019-01-20T17:39:53.039Z,102164.16
2019-01-20T17:42:20.232Z,102166.77
2019-01-20T17:44:47.553Z,102172.00
2019-01-20T17:47:14.710Z,102172.00
2019-01-20T17:49:41.910Z,102163.25
2019-01-20T17:52:09.163Z,102163.25
2019-01-20T17:54:36.375Z,102177.65
2019-01-20T17:57:03.531Z,102177.65
2019-01-20T17:59:30.852Z,102178.96
2019-01-20T18:01:58.128Z,102178.96
2019-01-20T18:04:25.312Z,102185.47
2019-01-20T18:06:52.514Z,102190.27
2019-01-20T18:09:19.754Z,102190.27
2019-01-20T18:11:47.089Z,102194.62
2019-01-20T18:14:14.250Z,102189.80
2019-01-20T18:16:41.411Z,102200.30
2019-01-20T18:19:08.600Z,102200.30
2019-01-20T18:21:35.757Z,102191.58
2019-01-20T18:24:03.098Z,102194.17
2019-01-20T18:26:30.378Z,102202.45
2019-01-20T18:28:57.571Z,102202.45
2019-01-20T18:31:24.784Z,102198.95
2019-01-20T18:33:51.969Z,102206.34
2019-01-20T18:36:19.272Z,102213.77
2019-01-20T18:38:46.434Z,102208.53
2019-01-20T18:41:13.604Z,102207.65
2019-01-20T18:43:40.807Z,102220.72
2019-01-20T18:46:08.031Z,102220.72
2019-01-20T18:48:35.241Z,102224.64
2019-01-20T18:51:02.383Z,102210.20
2019-01-20T18:53:29.616Z,102213.70
2019-01-20T18:55:56.791Z,102213.70
2019-01-20T18:58:23.992Z,102228.10
2019-01-20T19:00:52.163Z,102229.41
2019-01-20T19:03:19.363Z,102230.65
2019-01-20T19:05:46.570Z,102230.65
2019-01-20T19:08:13.748Z,102229.34
2019-01-20T19:10:41.014Z,102232.41
2019-01-20T19:13:08.170Z,102225.89
2019-01-20T19:15:35.407Z,102223.70
2019-01-20T19:18:02.601Z,102223.70
2019-01-20T19:20:29.817Z,102221.06
2019-01-20T19:22:57.006Z,102224.55
2019-01-20T19:25:24.259Z,102228.45
2019-01-20T19:27:51.471Z,102231.05
2019-01-20T19:30:20.817Z,102239.75
2019-01-20T19:32:48.054Z,102234.48
2019-01-20T19:35:15.238Z,102234.52
2019-01-20T19:37:42.465Z,102234.13
2019-01-20T19:40:09.878Z,102224.48
2019-01-20T19:42:37.080Z,102224.48
2019-01-20T19:45:05.432Z,102249.81
2019-01-20T19:47:32.602Z,102249.81
2019-01-20T19:49:59.804Z,102255.88
2019-01-20T19:52:27.017Z,102255.88
2019-01-20T19:54:54.209Z,102253.72
2019-01-20T19:57:21.366Z,102254.15
2019-01-20T19:59:48.577Z,102249.73
2019-01-20T20:02:15.778Z,102251.92
2019-01-20T20:04:42.964Z,102250.61
2019-01-20T20:07:10.192Z,102236.17
2019-01-20T20:09:37.486Z,102236.17
2019-01-20T20:12:04.634Z,102252.42
2019-01-20T20:14:31.868Z,102256.33
2019-01-20T20:16:59.029Z,102258.02
2019-01-20T20:19:26.266Z,102262.36
2019-01-20T20:21:53.483Z,102263.63
2019-01-20T20:24:25.316Z,102269.72
2019-01-20T20:26:49.770Z,102265.84
2019-01-20T20:29:17.253Z,102268.48
2019-01-20T20:31:44.689Z,102272.02
2019-01-20T20:34:11.988Z,102272.48
2019-01-20T20:36:41.330Z,102272.48
2019-01-20T20:39:08.918Z,102273.80
2019-01-20T20:41:36.436Z,102283.34
2019-01-20T20:44:03.667Z,102284.69
2019-01-20T20:46:30.892Z,102275.09
2019-01-20T20:48:58.095Z,102283.44
2019-01-20T20:51:25.302Z,102283.44
2019-01-20T20:53:52.498Z,102288.17
2019-01-20T20:56:19.790Z,102299.02
2019-01-20T20:58:46.976Z,102308.56
2019-01-20T21:01:14.180Z,102314.67
2019-01-20T21:03:41.566Z,102329.53
2019-01-20T21:06:08.758Z,102329.53
2019-01-20T21:08:36.054Z,102325.98
2019-01-20T21:11:03.240Z,102331.63
2019-01-20T21:13:30.407Z,102335.95
2019-01-20T21:15:57.627Z,102333.33
2019-01-20T21:18:24.835Z,102339.86
2019-01-20T21:20:52.763Z,102337.69
2019-01-20T21:23:19.989Z,102339.00
2019-01-20T21:25:47.210Z,102343.75
2019-01-20T21:28:14.445Z,102335.91
2019-01-20T21:30:41.604Z,102327.23
2019-01-20T21:33:08.759Z,102323.77
2019-01-20T21:35:35.985Z,102320.58
2019-01-20T21:38:07.001Z,102321.92
2019-01-20T21:40:32.229Z,102323.23
2019-01-20T21:42:59.389Z,102320.19
2019-01-20T21:45:26.606Z,102327.98
2019-01-20T21:47:53.819Z,102337.17
2019-01-20T21:50:26.244Z,102341.13
2019-01-20T21:52:53.434Z,102344.12
2019-01-20T21:55:20.585Z,102343.69
2019-01-20T21:57:47.878Z,102344.20
2019-01-20T22:00:17.314Z,102349.76
2019-01-20T22:02:44.516Z,102349.76
2019-01-20T22:05:11.724Z,102350.22
2019-01-20T22:07:38.887Z,102351.94
2019-01-20T22:10:09.114Z,102348.45
2019-01-20T22:12:36.299Z,102344.52
2019-01-20T22:15:03.701Z,102350.61
2019-01-20T22:17:30.854Z,102342.31
2019-01-20T22:19:58.200Z,102345.81
2019-01-20T22:22:25.379Z,102342.27
2019-01-20T22:24:52.540Z,102345.37
2019-01-20T22:27:19.727Z,102340.57
2019-01-20T22:29:46.897Z,102345.34
2019-01-20T22:32:14.283Z,102340.98
2019-01-20T22:34:41.455Z,102340.53
2019-01-20T22:37:08.679Z,102341.33
2019-01-20T22:39:35.980Z,102332.20
2019-01-20T22:42:03.202Z,102332.20
2019-01-20T22:44:30.393Z,102332.66
2019-01-20T22:47:00.228Z,102335.75
2019-01-20T22:49:26.657Z,102335.27
2019-01-20T22:51:53.909Z,102335.20
2019-01-20T22:54:21.089Z,102343.11
2019-01-20T22:56:48.266Z,102342.24
2019-01-20T22:59:15.596Z,102352.66
2019-01-20T23:01:42.870Z,102356.53
2019-01-20T23:04:10.071Z,102359.98
2019-01-20T23:06:37.259Z,102361.77
2019-01-20T23:09:06.769Z,102359.15
2019-01-20T23:11:34.152Z,102355.21
2019-01-20T23:14:01.379Z,102352.58
2019-01-20T23:16:28.557Z,102352.53
2019-01-20T23:18:55.741Z,102348.23
2019-01-20T23:21:22.905Z,102347.79
2019-01-20T23:23:50.116Z,102346.47
2019-01-20T23:26:17.322Z,102348.19
2019-01-20T23:28:44.684Z,102349.08
2019-01-20T23:31:11.849Z,102347.79
2019-01-20T23:33:39.058Z,102352.62
2019-01-20T23:36:06.275Z,102345.61
2019-01-20T23:38:33.499Z,102350.84
2019-01-20T23:41:01.177Z,102352.15
2019-01-20T23:43:28.339Z,102351.27
2019-01-20T23:45:55.485Z,102354.75
2019-01-20T23:48:22.811Z,102353.84
2019-01-20T23:50:49.979Z,102352.16
2019-01-20T23:53:17.176Z,102350.83
2019-01-20T23:55:44.377Z,102343.36
2019-01-20T23:58:11.608Z,102348.59
